sensor_id;sensor_type;location;lat;lon;timestamp;P1;P2;P0
55276;PMS5003;41136;51.478;-2.610;2023-03-08T00:01:19;21;17;
55276;PMS5003;41136;51.478;-2.610;2023-03-08T00:03:44;14;13;
55276;PMS5003;41136;51.478;-2.610;2023-03-08T00:06:11;17;17;
55276;PMS5003;41136;51.478;-2.610;2023-03-08T00:08:36;19;18;
55276;PMS5003;41136;51.478;-2.610;2023-03-08T00:11:03;18;18;
55276;PMS5003;41136;51.478;-2.610;2023-03-08T00:13:27;17;15;
55276;PMS5003;41136;51.478;-2.610;2023-03-08T00:15:52;16;15;
55276;PMS5003;41136;51.478;-2.610;2023-03-08T00:18:18;26;23;
55276;PMS5003;41136;51.478;-2.610;2023-03-08T00:20:43;23;19;
55276;PMS5003;41136;51.478;-2.610;2023-03-08T00:23:08;25;19;
55276;PMS5003;41136;51.478;-2.610;2023-03-08T00:25:34;20;19;
55276;PMS5003;41136;51.478;-2.610;2023-03-08T00:28:00;24;22;
55276;PMS5003;41136;51.478;-2.610;2023-03-08T00:30:25;19;18;
55276;PMS5003;41136;51.478;-2.610;2023-03-08T00:32:50;19;19;
55276;PMS5003;41136;51.478;-2.610;2023-03-08T00:35:16;24;21;
55276;PMS5003;41136;51.478;-2.610;2023-03-08T00:37:41;18;16;
55276;PMS5003;41136;51.478;-2.610;2023-03-08T00:40:07;19;19;
55276;PMS5003;41136;51.478;-2.610;2023-03-08T00:42:32;23;19;
55276;PMS5003;41136;51.478;-2.610;2023-03-08T00:44:58;21;19;
55276;PMS5003;41136;51.478;-2.610;2023-03-08T00:47:23;19;18;
55276;PMS5003;41136;51.478;-2.610;2023-03-08T00:49:49;21;18;
55276;PMS5003;41136;51.478;-2.610;2023-03-08T00:52:14;20;18;
55276;PMS5003;41136;51.478;-2.610;2023-03-08T00:54:39;19;16;
55276;PMS5003;41136;51.478;-2.610;2023-03-08T00:57:05;23;16;
55276;PMS5003;41136;51.478;-2.610;2023-03-08T00:59:30;22;22;
55276;PMS5003;41136;51.478;-2.610;2023-03-08T01:01:56;18;18;
55276;PMS5003;41136;51.478;-2.610;2023-03-08T01:04:21;19;16;
55276;PMS5003;41136;51.478;-2.610;2023-03-08T01:06:46;17;17;
55276;PMS5003;41136;51.478;-2.610;2023-03-08T01:09:12;22;17;
55276;PMS5003;41136;51.478;-2.610;2023-03-08T01:11:37;18;16;
55276;PMS5003;41136;51.478;-2.610;2023-03-08T01:14:03;19;15;
55276;PMS5003;41136;51.478;-2.610;2023-03-08T01:16:29;18;18;
55276;PMS5003;41136;51.478;-2.610;2023-03-08T01:18:54;15;15;
55276;PMS5003;41136;51.478;-2.610;2023-03-08T01:21:20;19;18;
55276;PMS5003;41136;51.478;-2.610;2023-03-08T01:23:45;19;18;
55276;PMS5003;41136;51.478;-2.610;2023-03-08T01:26:11;20;20;
55276;PMS5003;41136;51.478;-2.610;2023-03-08T01:28:35;18;17;
55276;PMS5003;41136;51.478;-2.610;2023-03-08T01:31:01;20;17;
55276;PMS5003;41136;51.478;-2.610;2023-03-08T01:33:26;24;19;
55276;PMS5003;41136;51.478;-2.610;2023-03-08T01:35:51;18;15;
55276;PMS5003;41136;51.478;-2.610;2023-03-08T01:38:17;17;14;
55276;PMS5003;41136;51.478;-2.610;2023-03-08T01:40:42;19;18;
55276;PMS5003;41136;51.478;-2.610;2023-03-08T01:43:10;20;20;
55276;PMS5003;41136;51.478;-2.610;2023-03-08T01:47:58;17;17;
55276;PMS5003;41136;51.478;-2.610;2023-03-08T01:50:24;18;12;
55276;PMS5003;41136;51.478;-2.610;2023-03-08T01:52:50;18;17;
55276;PMS5003;41136;51.478;-2.610;2023-03-08T01:55:15;15;14;
55276;PMS5003;41136;51.478;-2.610;2023-03-08T01:57:41;17;16;
55276;PMS5003;41136;51.478;-2.610;2023-03-08T02:00:07;20;17;
55276;PMS5003;41136;51.478;-2.610;2023-03-08T02:02:33;13;13;
55276;PMS5003;41136;51.478;-2.610;2023-03-08T02:04:56;16;16;
55276;PMS5003;41136;51.478;-2.610;2023-03-08T02:07:21;24;20;
55276;PMS5003;41136;51.478;-2.610;2023-03-08T02:09:47;19;17;
55276;PMS5003;41136;51.478;-2.610;2023-03-08T02:12:12;17;17;
55276;PMS5003;41136;51.478;-2.610;2023-03-08T02:14:38;22;21;
55276;PMS5003;41136;51.478;-2.610;2023-03-08T02:17:03;21;18;
55276;PMS5003;41136;51.478;-2.610;2023-03-08T02:19:31;19;16;
55276;PMS5003;41136;51.478;-2.610;2023-03-08T02:21:54;21;18;
55276;PMS5003;41136;51.478;-2.610;2023-03-08T02:24:21;26;25;
55276;PMS5003;41136;51.478;-2.610;2023-03-08T02:26:46;23;21;
55276;PMS5003;41136;51.478;-2.610;2023-03-08T02:29:11;26;21;
55276;PMS5003;41136;51.478;-2.610;2023-03-08T02:31:36;30;21;
55276;PMS5003;41136;51.478;-2.610;2023-03-08T02:34:01;25;20;
55276;PMS5003;41136;51.478;-2.610;2023-03-08T02:36:27;27;25;
55276;PMS5003;41136;51.478;-2.610;2023-03-08T02:38:52;20;18;
55276;PMS5003;41136;51.478;-2.610;2023-03-08T02:41:18;26;20;
55276;PMS5003;41136;51.478;-2.610;2023-03-08T02:43:43;26;22;
55276;PMS5003;41136;51.478;-2.610;2023-03-08T02:46:09;24;19;
55276;PMS5003;41136;51.478;-2.610;2023-03-08T02:48:33;24;19;
55276;PMS5003;41136;51.478;-2.610;2023-03-08T02:50:59;24;19;
55276;PMS5003;41136;51.478;-2.610;2023-03-08T02:53:24;25;20;
55276;PMS5003;41136;51.478;-2.610;2023-03-08T02:55:50;21;21;
55276;PMS5003;41136;51.478;-2.610;2023-03-08T02:58:15;22;14;
55276;PMS5003;41136;51.478;-2.610;2023-03-08T03:00:41;28;19;
55276;PMS5003;41136;51.478;-2.610;2023-03-08T03:03:06;19;19;
55276;PMS5003;41136;51.478;-2.610;2023-03-08T03:05:31;20;15;
55276;PMS5003;41136;51.478;-2.610;2023-03-08T03:07:57;21;18;
55276;PMS5003;41136;51.478;-2.610;2023-03-08T03:10:22;22;19;
55276;PMS5003;41136;51.478;-2.610;2023-03-08T03:12:48;26;18;
55276;PMS5003;41136;51.478;-2.610;2023-03-08T03:15:14;19;18;
55276;PMS5003;41136;51.478;-2.610;2023-03-08T03:17:39;23;20;
55276;PMS5003;41136;51.478;-2.610;2023-03-08T03:20:06;18;18;
55276;PMS5003;41136;51.478;-2.610;2023-03-08T03:22:30;27;20;
55276;PMS5003;41136;51.478;-2.610;2023-03-08T03:24:55;27;20;
55276;PMS5003;41136;51.478;-2.610;2023-03-08T03:27:20;24;23;
55276;PMS5003;41136;51.478;-2.610;2023-03-08T03:29:46;18;18;
55276;PMS5003;41136;51.478;-2.610;2023-03-08T03:32:11;23;20;
55276;PMS5003;41136;51.478;-2.610;2023-03-08T03:34:37;31;23;
55276;PMS5003;41136;51.478;-2.610;2023-03-08T03:37:03;20;20;
55276;PMS5003;41136;51.478;-2.610;2023-03-08T03:39:29;23;22;
55276;PMS5003;41136;51.478;-2.610;2023-03-08T03:41:54;24;17;
55276;PMS5003;41136;51.478;-2.610;2023-03-08T03:44:19;24;21;
55276;PMS5003;41136;51.478;-2.610;2023-03-08T03:46:45;24;23;
55276;PMS5003;41136;51.478;-2.610;2023-03-08T03:49:11;22;22;
55276;PMS5003;41136;51.478;-2.610;2023-03-08T03:51:36;28;23;
55276;PMS5003;41136;51.478;-2.610;2023-03-08T03:54:02;27;24;
55276;PMS5003;41136;51.478;-2.610;2023-03-08T03:56:27;28;23;
55276;PMS5003;41136;51.478;-2.610;2023-03-08T03:58:52;29;23;
55276;PMS5003;41136;51.478;-2.610;2023-03-08T04:01:19;23;21;
55276;PMS5003;41136;51.478;-2.610;2023-03-08T04:03:43;31;28;
55276;PMS5003;41136;51.478;-2.610;2023-03-08T04:06:10;30;26;
55276;PMS5003;41136;51.478;-2.610;2023-03-08T04:08:34;29;28;
55276;PMS5003;41136;51.478;-2.610;2023-03-08T04:11:00;32;25;
55276;PMS5003;41136;51.478;-2.610;2023-03-08T04:13:25;37;32;
55276;PMS5003;41136;51.478;-2.610;2023-03-08T04:15:51;28;24;
55276;PMS5003;41136;51.478;-2.610;2023-03-08T04:18:16;23;23;
55276;PMS5003;41136;51.478;-2.610;2023-03-08T04:20:41;29;29;
55276;PMS5003;41136;51.478;-2.610;2023-03-08T04:23:07;36;30;
55276;PMS5003;41136;51.478;-2.610;2023-03-08T04:25:33;35;28;
55276;PMS5003;41136;51.478;-2.610;2023-03-08T04:27:58;33;29;
55276;PMS5003;41136;51.478;-2.610;2023-03-08T04:30:24;32;28;
55276;PMS5003;41136;51.478;-2.610;2023-03-08T04:32:49;29;25;
55276;PMS5003;41136;51.478;-2.610;2023-03-08T04:35:14;34;27;
55276;PMS5003;41136;51.478;-2.610;2023-03-08T04:37:40;26;25;
55276;PMS5003;41136;51.478;-2.610;2023-03-08T04:40:06;30;21;
55276;PMS5003;41136;51.478;-2.610;2023-03-08T04:42:31;33;31;
55276;PMS5003;41136;51.478;-2.610;2023-03-08T04:44:57;35;31;
55276;PMS5003;41136;51.478;-2.610;2023-03-08T04:47:22;27;24;
55276;PMS5003;41136;51.478;-2.610;2023-03-08T04:49:48;35;31;
55276;PMS5003;41136;51.478;-2.610;2023-03-08T04:52:13;28;23;
55276;PMS5003;41136;51.478;-2.610;2023-03-08T04:54:39;36;29;
55276;PMS5003;41136;51.478;-2.610;2023-03-08T04:57:05;33;28;
55276;PMS5003;41136;51.478;-2.610;2023-03-08T04:59:30;28;24;
55276;PMS5003;41136;51.478;-2.610;2023-03-08T05:01:56;40;28;
55276;PMS5003;41136;51.478;-2.610;2023-03-08T05:04:21;33;29;
55276;PMS5003;41136;51.478;-2.610;2023-03-08T05:06:47;40;28;
55276;PMS5003;41136;51.478;-2.610;2023-03-08T05:09:12;36;30;
55276;PMS5003;41136;51.478;-2.610;2023-03-08T05:11:38;28;26;
55276;PMS5003;41136;51.478;-2.610;2023-03-08T05:14:04;28;24;
55276;PMS5003;41136;51.478;-2.610;2023-03-08T05:16:29;32;30;
55276;PMS5003;41136;51.478;-2.610;2023-03-08T05:18:54;35;27;
55276;PMS5003;41136;51.478;-2.610;2023-03-08T05:21:21;38;34;
55276;PMS5003;41136;51.478;-2.610;2023-03-08T05:23:46;41;30;
55276;PMS5003;41136;51.478;-2.610;2023-03-08T05:26:12;29;27;
55276;PMS5003;41136;51.478;-2.610;2023-03-08T05:28:37;32;27;
55276;PMS5003;41136;51.478;-2.610;2023-03-08T05:31:03;35;32;
55276;PMS5003;41136;51.478;-2.610;2023-03-08T05:33:28;28;26;
55276;PMS5003;41136;51.478;-2.610;2023-03-08T05:35:53;31;28;
55276;PMS5003;41136;51.478;-2.610;2023-03-08T05:38:19;30;29;
55276;PMS5003;41136;51.478;-2.610;2023-03-08T05:40:44;36;30;
55276;PMS5003;41136;51.478;-2.610;2023-03-08T05:43:10;36;32;
55276;PMS5003;41136;51.478;-2.610;2023-03-08T05:45:35;38;30;
55276;PMS5003;41136;51.478;-2.610;2023-03-08T05:48:01;41;27;
55276;PMS5003;41136;51.478;-2.610;2023-03-08T05:50:26;36;31;
55276;PMS5003;41136;51.478;-2.610;2023-03-08T05:52:52;43;30;
55276;PMS5003;41136;51.478;-2.610;2023-03-08T05:55:17;38;31;
55276;PMS5003;41136;51.478;-2.610;2023-03-08T05:57:43;36;31;
55276;PMS5003;41136;51.478;-2.610;2023-03-08T06:00:09;39;31;
55276;PMS5003;41136;51.478;-2.610;2023-03-08T06:02:34;32;26;
55276;PMS5003;41136;51.478;-2.610;2023-03-08T06:05:00;30;26;
55276;PMS5003;41136;51.478;-2.610;2023-03-08T06:07:25;44;32;
55276;PMS5003;41136;51.478;-2.610;2023-03-08T06:09:51;37;32;
55276;PMS5003;41136;51.478;-2.610;2023-03-08T06:12:16;47;37;
55276;PMS5003;41136;51.478;-2.610;2023-03-08T06:14:42;47;34;
55276;PMS5003;41136;51.478;-2.610;2023-03-08T06:17:08;41;32;
55276;PMS5003;41136;51.478;-2.610;2023-03-08T06:19:33;36;30;
55276;PMS5003;41136;51.478;-2.610;2023-03-08T06:21:59;31;26;
55276;PMS5003;41136;51.478;-2.610;2023-03-08T06:24:24;43;36;
55276;PMS5003;41136;51.478;-2.610;2023-03-08T06:26:49;35;29;
55276;PMS5003;41136;51.478;-2.610;2023-03-08T06:29:15;30;29;
55276;PMS5003;41136;51.478;-2.610;2023-03-08T06:31:41;36;33;
55276;PMS5003;41136;51.478;-2.610;2023-03-08T06:34:06;46;38;
55276;PMS5003;41136;51.478;-2.610;2023-03-08T06:36:32;34;33;
55276;PMS5003;41136;51.478;-2.610;2023-03-08T06:38:57;41;37;
55276;PMS5003;41136;51.478;-2.610;2023-03-08T06:41:23;39;31;
55276;PMS5003;41136;51.478;-2.610;2023-03-08T06:43:49;36;32;
55276;PMS5003;41136;51.478;-2.610;2023-03-08T06:46:15;32;27;
55276;PMS5003;41136;51.478;-2.610;2023-03-08T06:48:39;41;33;
55276;PMS5003;41136;51.478;-2.610;2023-03-08T06:51:05;48;31;
55276;PMS5003;41136;51.478;-2.610;2023-03-08T06:53:31;31;29;
55276;PMS5003;41136;51.478;-2.610;2023-03-08T06:55:56;36;34;
55276;PMS5003;41136;51.478;-2.610;2023-03-08T06:58:21;33;29;
55276;PMS5003;41136;51.478;-2.610;2023-03-08T07:00:51;40;28;
55276;PMS5003;41136;51.478;-2.610;2023-03-08T07:03:12;51;34;
55276;PMS5003;41136;51.478;-2.610;2023-03-08T07:05:38;36;31;
55276;PMS5003;41136;51.478;-2.610;2023-03-08T07:08:03;38;29;
55276;PMS5003;41136;51.478;-2.610;2023-03-08T07:10:28;34;26;
55276;PMS5003;41136;51.478;-2.610;2023-03-08T07:12:54;37;30;
55276;PMS5003;41136;51.478;-2.610;2023-03-08T07:15:19;42;35;
55276;PMS5003;41136;51.478;-2.610;2023-03-08T07:17:44;42;31;
55276;PMS5003;41136;51.478;-2.610;2023-03-08T07:20:10;42;31;
55276;PMS5003;41136;51.478;-2.610;2023-03-08T07:22:35;49;35;
55276;PMS5003;41136;51.478;-2.610;2023-03-08T07:25:01;33;25;
55276;PMS5003;41136;51.478;-2.610;2023-03-08T07:27:26;33;29;
55276;PMS5003;41136;51.478;-2.610;2023-03-08T07:29:52;34;29;
55276;PMS5003;41136;51.478;-2.610;2023-03-08T07:32:17;28;28;
55276;PMS5003;41136;51.478;-2.610;2023-03-08T07:34:42;36;32;
55276;PMS5003;41136;51.478;-2.610;2023-03-08T07:37:10;41;32;
55276;PMS5003;41136;51.478;-2.610;2023-03-08T07:39:33;37;31;
55276;PMS5003;41136;51.478;-2.610;2023-03-08T07:41:58;30;27;
55276;PMS5003;41136;51.478;-2.610;2023-03-08T07:44:24;29;26;
55276;PMS5003;41136;51.478;-2.610;2023-03-08T07:46:49;28;26;
55276;PMS5003;41136;51.478;-2.610;2023-03-08T07:49:14;28;23;
55276;PMS5003;41136;51.478;-2.610;2023-03-08T07:51:40;31;25;
55276;PMS5003;41136;51.478;-2.610;2023-03-08T07:54:05;34;31;
55276;PMS5003;41136;51.478;-2.610;2023-03-08T07:56:30;30;26;
55276;PMS5003;41136;51.478;-2.610;2023-03-08T07:58:56;28;23;
55276;PMS5003;41136;51.478;-2.610;2023-03-08T08:01:21;28;22;
55276;PMS5003;41136;51.478;-2.610;2023-03-08T08:03:47;32;29;
55276;PMS5003;41136;51.478;-2.610;2023-03-08T08:06:12;25;23;
55276;PMS5003;41136;51.478;-2.610;2023-03-08T08:08:38;29;25;
55276;PMS5003;41136;51.478;-2.610;2023-03-08T08:13:28;33;22;
55276;PMS5003;41136;51.478;-2.610;2023-03-08T08:15:58;26;18;
55276;PMS5003;41136;51.478;-2.610;2023-03-08T08:18:20;27;22;
55276;PMS5003;41136;51.478;-2.610;2023-03-08T08:20:45;27;20;
55276;PMS5003;41136;51.478;-2.610;2023-03-08T08:23:10;25;23;
55276;PMS5003;41136;51.478;-2.610;2023-03-08T08:25:37;29;22;
55276;PMS5003;41136;51.478;-2.610;2023-03-08T08:28:02;25;24;
55276;PMS5003;41136;51.478;-2.610;2023-03-08T08:30:27;25;22;
55276;PMS5003;41136;51.478;-2.610;2023-03-08T08:32:52;25;23;
55276;PMS5003;41136;51.478;-2.610;2023-03-08T08:35:18;27;27;
55276;PMS5003;41136;51.478;-2.610;2023-03-08T08:37:43;26;26;
55276;PMS5003;41136;51.478;-2.610;2023-03-08T08:40:09;25;21;
55276;PMS5003;41136;51.478;-2.610;2023-03-08T08:42:34;40;35;
55276;PMS5003;41136;51.478;-2.610;2023-03-08T08:45:00;26;24;
55276;PMS5003;41136;51.478;-2.610;2023-03-08T08:47:27;30;26;
55276;PMS5003;41136;51.478;-2.610;2023-03-08T08:49:51;32;27;
55276;PMS5003;41136;51.478;-2.610;2023-03-08T08:52:16;28;23;
55276;PMS5003;41136;51.478;-2.610;2023-03-08T08:54:42;32;31;
55276;PMS5003;41136;51.478;-2.610;2023-03-08T08:57:08;28;26;
55276;PMS5003;41136;51.478;-2.610;2023-03-08T08:59:33;43;30;
55276;PMS5003;41136;51.478;-2.610;2023-03-08T09:01:59;30;25;
55276;PMS5003;41136;51.478;-2.610;2023-03-08T09:04:25;41;33;
55276;PMS5003;41136;51.478;-2.610;2023-03-08T09:06:50;36;26;
55276;PMS5003;41136;51.478;-2.610;2023-03-08T09:09:16;26;22;
55276;PMS5003;41136;51.478;-2.610;2023-03-08T09:11:41;29;27;
55276;PMS5003;41136;51.478;-2.610;2023-03-08T09:14:06;33;28;
55276;PMS5003;41136;51.478;-2.610;2023-03-08T09:16:33;34;32;
55276;PMS5003;41136;51.478;-2.610;2023-03-08T09:18:58;28;27;
55276;PMS5003;41136;51.478;-2.610;2023-03-08T09:21:23;31;27;
55276;PMS5003;41136;51.478;-2.610;2023-03-08T09:23:48;25;25;
55276;PMS5003;41136;51.478;-2.610;2023-03-08T09:26:13;27;24;
55276;PMS5003;41136;51.478;-2.610;2023-03-08T09:28:38;28;24;
55276;PMS5003;41136;51.478;-2.610;2023-03-08T09:31:05;28;23;
55276;PMS5003;41136;51.478;-2.610;2023-03-08T09:33:29;27;21;
55276;PMS5003;41136;51.478;-2.610;2023-03-08T09:35:55;27;19;
55276;PMS5003;41136;51.478;-2.610;2023-03-08T09:38:20;22;22;
55276;PMS5003;41136;51.478;-2.610;2023-03-08T09:40:50;15;15;
55276;PMS5003;41136;51.478;-2.610;2023-03-08T09:43:12;24;21;
55276;PMS5003;41136;51.478;-2.610;2023-03-08T09:45:37;26;17;
55276;PMS5003;41136;51.478;-2.610;2023-03-08T09:48:03;21;18;
55276;PMS5003;41136;51.478;-2.610;2023-03-08T09:50:31;21;19;
55276;PMS5003;41136;51.478;-2.610;2023-03-08T09:52:53;18;18;
55276;PMS5003;41136;51.478;-2.610;2023-03-08T09:55:19;20;17;
55276;PMS5003;41136;51.478;-2.610;2023-03-08T09:57:45;18;16;
55276;PMS5003;41136;51.478;-2.610;2023-03-08T10:00:12;18;16;
55276;PMS5003;41136;51.478;-2.610;2023-03-08T10:02:36;18;13;
55276;PMS5003;41136;51.478;-2.610;2023-03-08T10:05:03;23;16;
55276;PMS5003;41136;51.478;-2.610;2023-03-08T10:07:28;16;13;
55276;PMS5003;41136;51.478;-2.610;2023-03-08T10:09:59;17;14;
55276;PMS5003;41136;51.478;-2.610;2023-03-08T10:12:18;21;18;
55276;PMS5003;41136;51.478;-2.610;2023-03-08T10:14:41;12;11;
55276;PMS5003;41136;51.478;-2.610;2023-03-08T10:17:08;13;11;
55276;PMS5003;41136;51.478;-2.610;2023-03-08T10:19:34;14;13;
55276;PMS5003;41136;51.478;-2.610;2023-03-08T10:21:58;14;12;
55276;PMS5003;41136;51.478;-2.610;2023-03-08T10:24:23;16;13;
55276;PMS5003;41136;51.478;-2.610;2023-03-08T10:26:48;13;13;
55276;PMS5003;41136;51.478;-2.610;2023-03-08T10:29:13;12;11;
55276;PMS5003;41136;51.478;-2.610;2023-03-08T10:31:40;13;11;
55276;PMS5003;41136;51.478;-2.610;2023-03-08T10:34:10;13;13;
55276;PMS5003;41136;51.478;-2.610;2023-03-08T10:36:30;15;13;
55276;PMS5003;41136;51.478;-2.610;2023-03-08T10:38:57;17;15;
55276;PMS5003;41136;51.478;-2.610;2023-03-08T10:41:21;13;12;
55276;PMS5003;41136;51.478;-2.610;2023-03-08T10:43:48;20;14;
55276;PMS5003;41136;51.478;-2.610;2023-03-08T10:46:12;13;13;
55276;PMS5003;41136;51.478;-2.610;2023-03-08T10:48:37;19;14;
55276;PMS5003;41136;51.478;-2.610;2023-03-08T10:51:04;12;12;
55276;PMS5003;41136;51.478;-2.610;2023-03-08T10:53:29;20;16;
55276;PMS5003;41136;51.478;-2.610;2023-03-08T10:55:55;18;13;
55276;PMS5003;41136;51.478;-2.610;2023-03-08T10:58:25;13;12;
55276;PMS5003;41136;51.478;-2.610;2023-03-08T11:00:45;20;16;
55276;PMS5003;41136;51.478;-2.610;2023-03-08T11:03:12;23;21;
55276;PMS5003;41136;51.478;-2.610;2023-03-08T11:05:36;16;11;
55276;PMS5003;41136;51.478;-2.610;2023-03-08T11:08:02;13;12;
55276;PMS5003;41136;51.478;-2.610;2023-03-08T11:10:28;18;17;
55276;PMS5003;41136;51.478;-2.610;2023-03-08T11:15:18;18;17;
55276;PMS5003;41136;51.478;-2.610;2023-03-08T11:17:46;16;10;
55276;PMS5003;41136;51.478;-2.610;2023-03-08T11:20:11;12;11;
55276;PMS5003;41136;51.478;-2.610;2023-03-08T11:22:37;13;12;
55276;PMS5003;41136;51.478;-2.610;2023-03-08T11:25:02;16;10;
55276;PMS5003;41136;51.478;-2.610;2023-03-08T11:27:30;17;13;
55276;PMS5003;41136;51.478;-2.610;2023-03-08T11:29:55;17;16;
55276;PMS5003;41136;51.478;-2.610;2023-03-08T11:32:19;12;9;
55276;PMS5003;41136;51.478;-2.610;2023-03-08T11:34:48;14;14;
55276;PMS5003;41136;51.478;-2.610;2023-03-08T11:37:09;18;14;
55276;PMS5003;41136;51.478;-2.610;2023-03-08T11:39:33;18;14;
55276;PMS5003;41136;51.478;-2.610;2023-03-08T11:41:59;14;11;
55276;PMS5003;41136;51.478;-2.610;2023-03-08T11:44:27;17;17;
55276;PMS5003;41136;51.478;-2.610;2023-03-08T11:46:52;21;13;
55276;PMS5003;41136;51.478;-2.610;2023-03-08T11:49:18;30;27;
55276;PMS5003;41136;51.478;-2.610;2023-03-08T11:51:42;17;14;
55276;PMS5003;41136;51.478;-2.610;2023-03-08T11:54:08;13;12;
55276;PMS5003;41136;51.478;-2.610;2023-03-08T11:56:34;19;18;
55276;PMS5003;41136;51.478;-2.610;2023-03-08T11:58:56;21;16;
55276;PMS5003;41136;51.478;-2.610;2023-03-08T12:01:22;21;17;
55276;PMS5003;41136;51.478;-2.610;2023-03-08T12:03:48;16;15;
55276;PMS5003;41136;51.478;-2.610;2023-03-08T12:06:14;17;16;
55276;PMS5003;41136;51.478;-2.610;2023-03-08T12:08:38;17;16;
55276;PMS5003;41136;51.478;-2.610;2023-03-08T12:11:04;12;12;
55276;PMS5003;41136;51.478;-2.610;2023-03-08T12:13:31;21;20;
55276;PMS5003;41136;51.478;-2.610;2023-03-08T12:15:54;15;15;
55276;PMS5003;41136;51.478;-2.610;2023-03-08T12:18:20;18;16;
55276;PMS5003;41136;51.478;-2.610;2023-03-08T12:20:44;16;13;
55276;PMS5003;41136;51.478;-2.610;2023-03-08T12:23:12;22;16;
55276;PMS5003;41136;51.478;-2.610;2023-03-08T12:25:37;21;17;
55276;PMS5003;41136;51.478;-2.610;2023-03-08T12:28:00;16;16;
55276;PMS5003;41136;51.478;-2.610;2023-03-08T12:30:31;20;16;
55276;PMS5003;41136;51.478;-2.610;2023-03-08T12:32:51;17;15;
55276;PMS5003;41136;51.478;-2.610;2023-03-08T12:35:24;16;13;
55276;PMS5003;41136;51.478;-2.610;2023-03-08T12:37:42;23;18;
55276;PMS5003;41136;51.478;-2.610;2023-03-08T12:42:34;17;14;
55276;PMS5003;41136;51.478;-2.610;2023-03-08T12:47:24;17;17;
55276;PMS5003;41136;51.478;-2.610;2023-03-08T12:49:50;15;12;
55276;PMS5003;41136;51.478;-2.610;2023-03-08T12:54:40;16;13;
55276;PMS5003;41136;51.478;-2.610;2023-03-08T12:59:33;14;14;
55276;PMS5003;41136;51.478;-2.610;2023-03-08T13:01:59;16;14;
55276;PMS5003;41136;51.478;-2.610;2023-03-08T13:04:25;17;13;
55276;PMS5003;41136;51.478;-2.610;2023-03-08T13:09:17;17;16;
55276;PMS5003;41136;51.478;-2.610;2023-03-08T13:11:42;16;13;
55276;PMS5003;41136;51.478;-2.610;2023-03-08T13:16:33;23;21;
55276;PMS5003;41136;51.478;-2.610;2023-03-08T13:19:01;20;16;
55276;PMS5003;41136;51.478;-2.610;2023-03-08T13:21:25;13;13;
55276;PMS5003;41136;51.478;-2.610;2023-03-08T13:23:48;19;19;
55276;PMS5003;41136;51.478;-2.610;2023-03-08T13:26:17;18;15;
55276;PMS5003;41136;51.478;-2.610;2023-03-08T13:28:39;18;16;
55276;PMS5003;41136;51.478;-2.610;2023-03-08T13:31:10;17;15;
55276;PMS5003;41136;51.478;-2.610;2023-03-08T13:33:30;18;17;
55276;PMS5003;41136;51.478;-2.610;2023-03-08T13:35:57;21;17;
55276;PMS5003;41136;51.478;-2.610;2023-03-08T13:38:21;17;16;
55276;PMS5003;41136;51.478;-2.610;2023-03-08T13:40:49;17;17;
55276;PMS5003;41136;51.478;-2.610;2023-03-08T13:43:12;16;13;
55276;PMS5003;41136;51.478;-2.610;2023-03-08T13:45:37;20;17;
55276;PMS5003;41136;51.478;-2.610;2023-03-08T13:48:05;16;12;
55276;PMS5003;41136;51.478;-2.610;2023-03-08T13:50:29;16;15;
55276;PMS5003;41136;51.478;-2.610;2023-03-08T13:52:59;20;20;
55276;PMS5003;41136;51.478;-2.610;2023-03-08T13:55:20;23;20;
55276;PMS5003;41136;51.478;-2.610;2023-03-08T13:57:46;23;16;
55276;PMS5003;41136;51.478;-2.610;2023-03-08T14:02:43;19;16;
55276;PMS5003;41136;51.478;-2.610;2023-03-08T14:05:01;24;20;
55276;PMS5003;41136;51.478;-2.610;2023-03-08T14:07:28;27;23;
55276;PMS5003;41136;51.478;-2.610;2023-03-08T14:09:52;16;16;
55276;PMS5003;41136;51.478;-2.610;2023-03-08T14:12:18;20;16;
55276;PMS5003;41136;51.478;-2.610;2023-03-08T14:14:45;21;17;
55276;PMS5003;41136;51.478;-2.610;2023-03-08T14:17:12;20;15;
55276;PMS5003;41136;51.478;-2.610;2023-03-08T14:19:36;15;15;
55276;PMS5003;41136;51.478;-2.610;2023-03-08T14:22:00;18;15;
55276;PMS5003;41136;51.478;-2.610;2023-03-08T14:24:26;22;14;
55276;PMS5003;41136;51.478;-2.610;2023-03-08T14:26:52;15;13;
55276;PMS5003;41136;51.478;-2.610;2023-03-08T14:29:16;14;13;
55276;PMS5003;41136;51.478;-2.610;2023-03-08T14:36:32;16;14;
55276;PMS5003;41136;51.478;-2.610;2023-03-08T14:38:57;15;15;
55276;PMS5003;41136;51.478;-2.610;2023-03-08T14:43:48;10;10;
55276;PMS5003;41136;51.478;-2.610;2023-03-08T14:46:16;11;11;
55276;PMS5003;41136;51.478;-2.610;2023-03-08T14:48:39;11;10;
55276;PMS5003;41136;51.478;-2.610;2023-03-08T14:51:05;16;11;
55276;PMS5003;41136;51.478;-2.610;2023-03-08T14:53:31;9;9;
55276;PMS5003;41136;51.478;-2.610;2023-03-08T14:55:56;14;14;
55276;PMS5003;41136;51.478;-2.610;2023-03-08T14:58:21;14;13;
55276;PMS5003;41136;51.478;-2.610;2023-03-08T15:00:47;17;12;
55276;PMS5003;41136;51.478;-2.610;2023-03-08T15:03:12;17;13;
55276;PMS5003;41136;51.478;-2.610;2023-03-08T15:05:37;15;15;
55276;PMS5003;41136;51.478;-2.610;2023-03-08T15:08:02;12;12;
55276;PMS5003;41136;51.478;-2.610;2023-03-08T15:10:29;13;13;
55276;PMS5003;41136;51.478;-2.610;2023-03-08T15:12:53;12;11;
55276;PMS5003;41136;51.478;-2.610;2023-03-08T15:15:19;13;9;
55276;PMS5003;41136;51.478;-2.610;2023-03-08T15:17:44;8;8;
55276;PMS5003;41136;51.478;-2.610;2023-03-08T15:20:11;13;12;
55276;PMS5003;41136;51.478;-2.610;2023-03-08T15:22:37;12;12;
55276;PMS5003;41136;51.478;-2.610;2023-03-08T15:25:01;10;10;
55276;PMS5003;41136;51.478;-2.610;2023-03-08T15:27:26;12;12;
55276;PMS5003;41136;51.478;-2.610;2023-03-08T15:29:52;11;9;
55276;PMS5003;41136;51.478;-2.610;2023-03-08T15:32:17;12;9;
55276;PMS5003;41136;51.478;-2.610;2023-03-08T15:34:43;11;11;
55276;PMS5003;41136;51.478;-2.610;2023-03-08T15:37:10;12;11;
55276;PMS5003;41136;51.478;-2.610;2023-03-08T15:39:34;11;11;
55276;PMS5003;41136;51.478;-2.610;2023-03-08T15:42:00;15;11;
55276;PMS5003;41136;51.478;-2.610;2023-03-08T15:44:25;11;11;
55276;PMS5003;41136;51.478;-2.610;2023-03-08T15:46:51;11;9;
55276;PMS5003;41136;51.478;-2.610;2023-03-08T15:49:16;13;11;
55276;PMS5003;41136;51.478;-2.610;2023-03-08T15:51:42;14;14;
55276;PMS5003;41136;51.478;-2.610;2023-03-08T15:54:08;12;12;
55276;PMS5003;41136;51.478;-2.610;2023-03-08T15:56:33;14;14;
55276;PMS5003;41136;51.478;-2.610;2023-03-08T15:58:58;14;14;
55276;PMS5003;41136;51.478;-2.610;2023-03-08T16:01:24;16;16;
55276;PMS5003;41136;51.478;-2.610;2023-03-08T16:03:50;14;11;
55276;PMS5003;41136;51.478;-2.610;2023-03-08T16:06:15;18;15;
55276;PMS5003;41136;51.478;-2.610;2023-03-08T16:08:40;12;12;
55276;PMS5003;41136;51.478;-2.610;2023-03-08T16:11:06;13;11;
55276;PMS5003;41136;51.478;-2.610;2023-03-08T16:13:31;12;12;
55276;PMS5003;41136;51.478;-2.610;2023-03-08T16:15:57;13;11;
55276;PMS5003;41136;51.478;-2.610;2023-03-08T16:18:22;12;9;
55276;PMS5003;41136;51.478;-2.610;2023-03-08T16:20:49;12;11;